STS Pogoria — SQKY — position and weather

sailwx.info

Track history (hours):
 
Tides and Currents Weather Stations Pressure Air Temp Water Temp Dewpoint Dewpoint Depression Visibility Wind Speed Wind Dir Waves Ship Positions

STS Pogoria

Last reported at 2020-Oct-01 05:30 UTC. Time now 2020-Oct-01 07:33 UTC.
Position N 54°31' E 018°33'.

Length 47 m.

Type: Sailing vessel. MMSI: 261146000.

Date/timePositionNaut miles runAvg speedWind from/ knotsBaromVisibWave heightAir tempDewpointWater temp
2020-Oct-01 05:30N 54°31' E 018°33'0 0.0
2020-Sep-30 22:30N 54°31' E 018°33'0 0.0
2020-Sep-30 21:30N 54°31' E 018°33'0 0.0
2020-Sep-30 15:00N 54°31' E 018°33'0 0.0
2020-Sep-30 13:00N 54°31' E 018°33'0 0.0
2020-Sep-30 10:00N 54°31' E 018°33'1 0.2
2020-Sep-30 05:59N 54°31' E 018°35'0 0.0
2020-Sep-30 05:29N 54°31' E 018°35'0 0.0
2020-Sep-30 04:59N 54°31' E 018°35'0 0.0
2020-Sep-30 02:59N 54°31' E 018°35'0 0.0
2020-Sep-30 02:29N 54°31' E 018°35'0 0.0
2020-Sep-29 23:26N 54°31' E 018°35'0 0.0
2020-Sep-29 16:59N 54°31' E 018°34'0 0.0
2020-Sep-29 16:00N 54°31' E 018°34'0 0.0
2020-Sep-29 14:30N 54°31' E 018°35'0 0.0
2020-Sep-29 14:00N 54°31' E 018°35'0 0.0
2020-Sep-29 13:00N 54°31' E 018°35'0 0.0
2020-Sep-29 11:15N 54°31' E 018°34'0 0.0
2020-Sep-29 10:00N 54°31' E 018°34'0 0.1
2020-Sep-29 07:01N 54°31' E 018°35'9 4.5
2020-Sep-29 05:00N 54°36' E 018°48'0 0.0
2020-Sep-29 04:30N 54°36' E 018°48'0 0.0
2020-Sep-29 00:30N 54°36' E 018°48'0 0.0
2020-Sep-28 22:00N 54°36' E 018°48'0 0.0
2020-Sep-28 20:00N 54°36' E 018°48'0 0.0
2020-Sep-28 19:30N 54°36' E 018°48'0 0.0
2020-Sep-28 18:30N 54°36' E 018°48'0 0.0
2020-Sep-28 17:30N 54°36' E 018°48'0 0.0
2020-Sep-28 17:00N 54°36' E 018°48'0 0.0
2020-Sep-28 15:58N 54°36' E 018°48'0 0.0
2020-Sep-28 13:58N 54°36' E 018°48'0 0.0
2020-Sep-28 11:58N 54°36' E 018°48'0 0.0
2020-Sep-28 11:25N 54°36' E 018°48'0 0.0
2020-Sep-28 10:58N 54°36' E 018°48'0 0.0
2020-Sep-28 10:28N 54°36' E 018°48'0 0.0
2020-Sep-28 08:28N 54°36' E 018°48'0 0.0
2020-Sep-28 07:28N 54°36' E 018°48'0 0.0
2020-Sep-28 02:58N 54°36' E 018°48'0 0.0
2020-Sep-28 01:28N 54°36' E 018°48'0 0.0
2020-Sep-28 00:58N 54°36' E 018°48'0 0.0
2020-Sep-27 21:58N 54°36' E 018°48'0 0.0
2020-Sep-27 19:58N 54°36' E 018°48'0 0.0
2020-Sep-27 18:58N 54°36' E 018°48'1 0.7
2020-Sep-27 17:00N 54°36' E 018°50'12 4.0
2020-Sep-27 14:00N 54°46' E 018°38'4 4.0
2020-Sep-27 13:00N 54°48' E 018°33'10 3.0
2020-Sep-27 09:44N 54°53' E 018°17'95 2.2
2020-Sep-25 14:16N 55°23' E 015°40'2 2.5
2020-Sep-25 13:21N 55°25' E 015°39'13 2.5
2020-Sep-25 08:08N 55°38' E 015°36'25 1.7
2020-Sep-24 16:59N 55°19' E 015°06'4 3.1
2020-Sep-24 15:43N 55°20' E 015°00'2 3.6
2020-Sep-24 15:06N 55°21' E 014°56'  
2020-Sep-22 07:53N 54°40' E 013°42'47 4.5
2020-Sep-21 21:30N 53°57' E 014°14'25 5.6
2020-Sep-21 17:01N 53°35' E 014°36'6 5.5
2020-Sep-21 16:00N 53°30' E 014°38'5 2.3
2020-Sep-21 13:59N 53°26' E 014°34'0 0.0
2020-Sep-21 10:29N 53°26' E 014°34'0 0.0
2020-Sep-21 08:29N 53°26' E 014°34'0 0.0
2020-Sep-21 07:29N 53°26' E 014°34'0 0.0
2020-Sep-21 05:30N 53°26' E 014°34'  
Track history (hours):
 
Tides and Currents Weather Stations Pressure Air Temp Water Temp Dewpoint Dewpoint Depression Visibility Wind Speed Wind Dir Waves Ship Positions

STS Pogoria

Last reported at 2020-Oct-01 05:30 UTC. Time now 2020-Oct-01 07:33 UTC.
Position N 54°31' E 018°33'.

Length 47 m.

Type: Sailing vessel. MMSI: 261146000.

Date/timePositionNaut miles runAvg speedWind from/ knotsBaromVisibWave heightAir tempDewpointWater temp
2020-Oct-01 05:30N 54°31' E 018°33'0 0.0
2020-Sep-30 22:30N 54°31' E 018°33'0 0.0
2020-Sep-30 21:30N 54°31' E 018°33'0 0.0
2020-Sep-30 15:00N 54°31' E 018°33'0 0.0
2020-Sep-30 13:00N 54°31' E 018°33'0 0.0
2020-Sep-30 10:00N 54°31' E 018°33'1 0.2
2020-Sep-30 05:59N 54°31' E 018°35'0 0.0
2020-Sep-30 05:29N 54°31' E 018°35'0 0.0
2020-Sep-30 04:59N 54°31' E 018°35'0 0.0
2020-Sep-30 02:59N 54°31' E 018°35'0 0.0
2020-Sep-30 02:29N 54°31' E 018°35'0 0.0
2020-Sep-29 23:26N 54°31' E 018°35'0 0.0
2020-Sep-29 16:59N 54°31' E 018°34'0 0.0
2020-Sep-29 16:00N 54°31' E 018°34'0 0.0
2020-Sep-29 14:30N 54°31' E 018°35'0 0.0
2020-Sep-29 14:00N 54°31' E 018°35'0 0.0
2020-Sep-29 13:00N 54°31' E 018°35'0 0.0
2020-Sep-29 11:15N 54°31' E 018°34'0 0.0
2020-Sep-29 10:00N 54°31' E 018°34'0 0.1
2020-Sep-29 07:01N 54°31' E 018°35'9 4.5
2020-Sep-29 05:00N 54°36' E 018°48'0 0.0
2020-Sep-29 04:30N 54°36' E 018°48'0 0.0
2020-Sep-29 00:30N 54°36' E 018°48'0 0.0
2020-Sep-28 22:00N 54°36' E 018°48'0 0.0
2020-Sep-28 20:00N 54°36' E 018°48'0 0.0
2020-Sep-28 19:30N 54°36' E 018°48'0 0.0
2020-Sep-28 18:30N 54°36' E 018°48'0 0.0
2020-Sep-28 17:30N 54°36' E 018°48'0 0.0
2020-Sep-28 17:00N 54°36' E 018°48'0 0.0
2020-Sep-28 15:58N 54°36' E 018°48'0 0.0
2020-Sep-28 13:58N 54°36' E 018°48'0 0.0
2020-Sep-28 11:58N 54°36' E 018°48'0 0.0
2020-Sep-28 11:25N 54°36' E 018°48'0 0.0
2020-Sep-28 10:58N 54°36' E 018°48'0 0.0
2020-Sep-28 10:28N 54°36' E 018°48'0 0.0
2020-Sep-28 08:28N 54°36' E 018°48'0 0.0
2020-Sep-28 07:28N 54°36' E 018°48'0 0.0
2020-Sep-28 02:58N 54°36' E 018°48'0 0.0
2020-Sep-28 01:28N 54°36' E 018°48'0 0.0
2020-Sep-28 00:58N 54°36' E 018°48'0 0.0
2020-Sep-27 21:58N 54°36' E 018°48'0 0.0
2020-Sep-27 19:58N 54°36' E 018°48'0 0.0
2020-Sep-27 18:58N 54°36' E 018°48'1 0.7
2020-Sep-27 17:00N 54°36' E 018°50'12 4.0
2020-Sep-27 14:00N 54°46' E 018°38'4 4.0
2020-Sep-27 13:00N 54°48' E 018°33'10 3.0
2020-Sep-27 09:44N 54°53' E 018°17'95 2.2
2020-Sep-25 14:16N 55°23' E 015°40'2 2.5
2020-Sep-25 13:21N 55°25' E 015°39'13 2.5
2020-Sep-25 08:08N 55°38' E 015°36'25 1.7
2020-Sep-24 16:59N 55°19' E 015°06'4 3.1
2020-Sep-24 15:43N 55°20' E 015°00'2 3.6
2020-Sep-24 15:06N 55°21' E 014°56'  
2020-Sep-22 07:53N 54°40' E 013°42'47 4.5
2020-Sep-21 21:30N 53°57' E 014°14'25 5.6
2020-Sep-21 17:01N 53°35' E 014°36'6 5.5
2020-Sep-21 16:00N 53°30' E 014°38'5 2.3
2020-Sep-21 13:59N 53°26' E 014°34'0 0.0
2020-Sep-21 10:29N 53°26' E 014°34'0 0.0
2020-Sep-21 08:29N 53°26' E 014°34'0 0.0
2020-Sep-21 07:29N 53°26' E 014°34'0 0.0
2020-Sep-21 05:30N 53°26' E 014°34'  

Dump ship's entire track history